createdAt,value
2019-02-20T00:02:12.718Z,6.60
2019-02-20T00:04:45.249Z,6.60
2019-02-20T00:07:21.931Z,6.50
2019-02-20T00:09:57.634Z,6.60
2019-02-20T00:12:34.918Z,6.60
2019-02-20T00:15:12.026Z,6.60
2019-02-20T00:17:40.044Z,6.40
2019-02-20T00:20:15.159Z,6.50
2019-02-20T00:22:50.395Z,6.50
2019-02-20T00:25:24.241Z,6.40
2019-02-20T00:27:58.406Z,6.30
2019-02-20T00:30:33.194Z,6.10
2019-02-20T00:33:05.933Z,6.00
2019-02-20T00:35:40.872Z,5.90
2019-02-20T00:38:14.088Z,6.10
2019-02-20T00:40:47.607Z,6.10
2019-02-20T00:43:21.643Z,6.10
2019-02-20T00:46:17.736Z,6.20
2019-02-20T00:48:57.123Z,6.30
2019-02-20T00:51:34.104Z,6.30
2019-02-20T00:54:09.529Z,6.40
2019-02-20T00:56:45.301Z,6.40
2019-02-20T00:59:17.569Z,6.40
2019-02-20T01:01:53.244Z,6.30
2019-02-20T01:04:27.039Z,6.30
2019-02-20T01:06:59.975Z,6.20
2019-02-20T01:09:36.429Z,6.20
2019-02-20T01:12:08.975Z,6.20
2019-02-20T01:14:44.355Z,6.10
2019-02-20T01:17:17.668Z,6.10
2019-02-20T01:19:57.594Z,6.00
2019-02-20T01:22:30.949Z,6.00
2019-02-20T01:25:14.141Z,6.10
2019-02-20T01:27:47.741Z,6.00
2019-02-20T01:30:24.419Z,6.00
2019-02-20T01:32:57.216Z,6.10
2019-02-20T01:35:33.235Z,6.00
2019-02-20T01:38:08.915Z,6.10
2019-02-20T01:40:43.832Z,6.10
2019-02-20T01:43:18.514Z,6.10
2019-02-20T01:45:52.409Z,6.00
2019-02-20T01:48:26.375Z,5.90
2019-02-20T01:51:03.969Z,6.00
2019-02-20T01:53:38.156Z,6.00
2019-02-20T01:56:11.997Z,6.00
2019-02-20T01:58:46.869Z,6.00
2019-02-20T02:01:22.750Z,6.00
2019-02-20T02:03:58.179Z,6.00
2019-02-20T02:06:34.639Z,6.10
2019-02-20T02:09:07.097Z,6.10
2019-02-20T02:11:45.395Z,6.00
2019-02-20T02:14:21.340Z,6.00
2019-02-20T02:16:55.038Z,6.10
2019-02-20T02:19:29.171Z,6.00
2019-02-20T02:22:04.665Z,6.10
2019-02-20T02:24:39.438Z,6.10
2019-02-20T02:27:12.431Z,6.10
2019-02-20T02:29:53.533Z,6.10
2019-02-20T02:32:25.307Z,6.00
2019-02-20T02:35:00.036Z,7.80
2019-02-20T02:37:37.424Z,6.00
2019-02-20T02:40:11.032Z,5.80
2019-02-20T02:42:43.640Z,5.80
2019-02-20T02:45:17.147Z,5.90
2019-02-20T02:47:56.775Z,6.00
2019-02-20T02:50:29.229Z,5.90
2019-02-20T02:53:07.503Z,5.80
2019-02-20T02:55:41.583Z,5.80
2019-02-20T02:58:16.117Z,5.80
2019-02-20T03:00:48.751Z,5.60
2019-02-20T03:03:22.147Z,5.70
2019-02-20T03:05:55.799Z,5.70
2019-02-20T03:08:33.173Z,5.80
2019-02-20T03:11:09.273Z,5.90
2019-02-20T03:13:42.485Z,5.90
2019-02-20T03:16:18.020Z,5.90
2019-02-20T03:18:52.908Z,5.90
2019-02-20T03:21:26.238Z,5.90
2019-02-20T03:24:03.706Z,5.80
2019-02-20T03:26:37.341Z,5.90
2019-02-20T03:29:12.492Z,7.70
2019-02-20T03:31:45.288Z,5.80
2019-02-20T03:34:21.712Z,5.90
2019-02-20T03:36:56.584Z,6.00
2019-02-20T03:39:30.003Z,6.20
2019-02-20T03:42:02.694Z,6.10
2019-02-20T03:44:36.281Z,6.20
2019-02-20T03:47:10.244Z,6.30
2019-02-20T03:49:44.591Z,6.40
2019-02-20T03:52:20.723Z,6.40
2019-02-20T03:54:56.860Z,6.40
2019-02-20T03:57:31.274Z,6.40
2019-02-20T04:00:05.366Z,6.40
2019-02-20T04:02:40.892Z,6.30
2019-02-20T04:05:13.921Z,6.20
2019-02-20T04:07:48.458Z,6.10
2019-02-20T04:10:20.726Z,6.00
2019-02-20T04:12:55.797Z,6.10
2019-02-20T04:15:30.137Z,6.00
2019-02-20T04:18:06.016Z,5.90
2019-02-20T04:20:39.157Z,5.90
2019-02-20T04:23:13.853Z,5.90
2019-02-20T04:25:46.001Z,5.70
2019-02-20T04:28:19.649Z,5.80
2019-02-20T04:30:53.646Z,5.90
2019-02-20T04:33:25.428Z,6.00
2019-02-20T04:36:00.230Z,5.90
2019-02-20T04:38:33.723Z,6.00
2019-02-20T04:41:05.158Z,6.00
2019-02-20T04:43:37.766Z,6.10
2019-02-20T04:46:15.134Z,5.40
2019-02-20T04:48:48.522Z,6.10
2019-02-20T04:51:21.691Z,6.10
2019-02-20T04:53:54.624Z,6.60
2019-02-20T04:56:28.203Z,6.10
2019-02-20T04:59:03.345Z,6.00
2019-02-20T05:01:36.654Z,6.00
2019-02-20T05:04:10.433Z,6.00
2019-02-20T05:06:44.642Z,6.00
2019-02-20T05:09:20.645Z,5.90
2019-02-20T05:11:53.641Z,5.80
2019-02-20T05:14:27.540Z,6.00
2019-02-20T05:16:59.228Z,6.10
2019-02-20T05:19:32.993Z,6.20
2019-02-20T05:22:06.641Z,6.20
2019-02-20T05:24:43.331Z,6.20
2019-02-20T05:27:25.885Z,6.20
2019-02-20T05:30:01.794Z,6.10
2019-02-20T05:32:37.482Z,6.20
2019-02-20T05:35:10.635Z,6.10
2019-02-20T05:37:44.758Z,6.20
2019-02-20T05:40:17.076Z,6.20
2019-02-20T05:42:50.301Z,6.20
2019-02-20T05:45:23.427Z,6.30
2019-02-20T05:50:44.797Z,6.40
2019-02-20T05:53:18.654Z,6.30
2019-02-20T05:55:50.843Z,6.40
2019-02-20T05:58:24.049Z,6.50
2019-02-20T06:00:55.694Z,6.50
2019-02-20T06:03:26.098Z,6.50
2019-02-20T06:06:00.016Z,6.50
2019-02-20T06:08:31.702Z,6.60
2019-02-20T06:11:12.198Z,6.50
2019-02-20T06:13:36.187Z,6.40
2019-02-20T06:16:13.810Z,6.40
2019-02-20T06:18:50.472Z,6.40
2019-02-20T06:21:24.851Z,6.40
2019-02-20T06:23:59.468Z,6.50
2019-02-20T06:26:34.347Z,6.50
2019-02-20T06:29:06.581Z,6.60
2019-02-20T06:31:40.665Z,6.60
2019-02-20T06:34:12.430Z,6.50
2019-02-20T06:36:43.899Z,6.50
2019-02-20T06:39:15.449Z,6.50
2019-02-20T06:41:44.334Z,6.50
2019-02-20T06:44:15.054Z,6.60
2019-02-20T06:46:45.959Z,6.70
2019-02-20T06:49:17.942Z,6.80
2019-02-20T06:51:49.550Z,6.90
2019-02-20T06:54:21.388Z,6.80
2019-02-20T06:56:52.399Z,6.90
2019-02-20T06:59:22.297Z,6.90
2019-02-20T07:01:59.380Z,7.00
2019-02-20T07:04:31.336Z,7.20
2019-02-20T07:07:08.597Z,7.20
2019-02-20T07:09:50.102Z,7.30
2019-02-20T07:12:40.395Z,7.50
2019-02-20T07:15:48.163Z,7.50
2019-02-20T07:18:29.974Z,7.60
2019-02-20T07:21:13.789Z,7.50
2019-02-20T07:24:15.506Z,8.60
2019-02-20T07:27:04.521Z,7.50
2019-02-20T07:29:46.474Z,7.40
2019-02-20T07:32:18.562Z,7.30
2019-02-20T07:34:52.933Z,7.40
2019-02-20T07:37:23.230Z,7.50
2019-02-20T07:39:57.453Z,7.50
2019-02-20T07:42:30.301Z,7.60
2019-02-20T07:45:12.739Z,7.70
2019-02-20T07:47:44.494Z,7.70
2019-02-20T07:50:25.686Z,7.80
2019-02-20T07:52:55.320Z,7.90
2019-02-20T07:55:27.985Z,7.90
2019-02-20T07:57:57.975Z,8.00
2019-02-20T08:00:27.635Z,8.00
2019-02-20T08:03:03.092Z,8.10
2019-02-20T08:05:37.588Z,8.20
2019-02-20T08:08:10.513Z,8.20
2019-02-20T08:10:50.389Z,8.30
2019-02-20T08:13:25.041Z,8.30
2019-02-20T08:15:59.859Z,8.40
2019-02-20T08:18:36.660Z,8.50
2019-02-20T08:21:06.629Z,8.70
2019-02-20T08:23:37.404Z,8.80
2019-02-20T08:26:16.839Z,9.00
2019-02-20T08:28:40.767Z,9.10
2019-02-20T08:31:11.206Z,8.50
2019-02-20T08:33:48.723Z,9.20
2019-02-20T08:36:18.103Z,9.30
2019-02-20T08:38:48.962Z,9.10
2019-02-20T08:41:21.577Z,8.80
2019-02-20T08:43:56.246Z,8.50
2019-02-20T08:46:29.341Z,8.60
2019-02-20T08:49:03.221Z,8.50
2019-02-20T08:51:32.404Z,8.30
2019-02-20T08:54:08.865Z,8.20
2019-02-20T08:56:41.052Z,8.00
2019-02-20T08:59:13.691Z,7.90
2019-02-20T09:01:45.841Z,8.00
2019-02-20T09:04:15.819Z,7.90
2019-02-20T09:06:47.348Z,7.90
2019-02-20T09:09:16.942Z,8.00
2019-02-20T09:11:46.563Z,8.00
2019-02-20T09:14:15.278Z,8.20
2019-02-20T09:16:44.015Z,8.00
2019-02-20T09:19:18.379Z,7.90
2019-02-20T09:21:52.052Z,8.00
2019-02-20T09:24:25.316Z,8.30
2019-02-20T09:27:02.245Z,8.30
2019-02-20T09:29:33.488Z,8.20
2019-02-20T09:32:04.055Z,7.90
2019-02-20T09:34:38.786Z,7.90
2019-02-20T09:37:08.720Z,7.90
2019-02-20T09:39:48.726Z,8.10
2019-02-20T09:42:20.705Z,8.30
2019-02-20T09:44:57.547Z,8.50
2019-02-20T09:47:30.762Z,8.40
2019-02-20T09:50:04.416Z,8.30
2019-02-20T09:52:38.284Z,8.60
2019-02-20T09:55:16.715Z,8.50
2019-02-20T09:57:59.108Z,8.70
2019-02-20T10:00:20.366Z,8.50
2019-02-20T10:02:53.828Z,8.60
2019-02-20T10:05:28.115Z,8.70
2019-02-20T10:08:07.095Z,8.70
2019-02-20T10:10:39.639Z,8.70
2019-02-20T10:13:12.381Z,9.10
2019-02-20T10:15:45.510Z,9.60
2019-02-20T10:18:16.878Z,9.90
2019-02-20T10:20:46.227Z,10.00
2019-02-20T10:23:26.075Z,8.70
2019-02-20T10:26:00.922Z,10.00
2019-02-20T10:28:30.352Z,10.00
2019-02-20T10:31:07.547Z,10.30
2019-02-20T10:33:40.443Z,10.20
2019-02-20T10:36:15.710Z,10.30
2019-02-20T10:38:51.468Z,10.50
2019-02-20T10:41:23.461Z,10.70
2019-02-20T10:44:04.839Z,10.90
2019-02-20T10:46:34.769Z,10.90
2019-02-20T10:49:06.880Z,11.10
2019-02-20T10:51:38.227Z,11.20
2019-02-20T10:54:13.236Z,11.30
2019-02-20T10:56:45.669Z,11.50
2019-02-20T10:59:17.532Z,11.50
2019-02-20T11:01:47.437Z,11.70
2019-02-20T11:04:20.316Z,11.80
2019-02-20T11:13:26.298Z,11.70
2019-02-20T11:15:58.923Z,12.00
2019-02-20T11:18:42.899Z,12.40
2019-02-20T11:21:23.087Z,12.60
2019-02-20T11:23:54.105Z,12.60
2019-02-20T11:26:25.268Z,12.90
2019-02-20T11:29:20.186Z,13.00
2019-02-20T11:31:57.867Z,13.10
2019-02-20T11:34:36.002Z,13.40
2019-02-20T11:37:01.887Z,13.60
2019-02-20T11:39:37.689Z,13.40
2019-02-20T11:42:07.061Z,13.20
2019-02-20T11:44:39.279Z,13.20
2019-02-20T11:47:09.218Z,13.30
2019-02-20T11:49:42.521Z,13.10
2019-02-20T11:52:47.751Z,13.10
2019-02-20T11:55:26.608Z,13.20
2019-02-20T11:58:13.600Z,13.00
2019-02-20T12:00:45.699Z,12.80
2019-02-20T12:03:42.206Z,13.10
2019-02-20T12:06:13.207Z,13.30
2019-02-20T12:08:47.375Z,13.20
2019-02-20T12:11:18.044Z,13.00
2019-02-20T12:13:47.295Z,13.40
2019-02-20T12:16:19.773Z,13.40
2019-02-20T12:18:53.181Z,14.10
2019-02-20T12:21:22.689Z,12.50
2019-02-20T12:24:17.071Z,11.90
2019-02-20T12:26:49.412Z,11.90
2019-02-20T12:29:56.118Z,12.30
2019-02-20T12:32:27.977Z,12.40
2019-02-20T12:35:34.173Z,12.80
2019-02-20T12:38:03.196Z,12.90
2019-02-20T12:40:59.003Z,12.90
2019-02-20T12:43:28.021Z,13.00
2019-02-20T12:46:31.480Z,13.20
2019-02-20T12:49:03.494Z,13.40
2019-02-20T12:52:16.823Z,13.60
2019-02-20T12:54:50.599Z,13.70
2019-02-20T13:11:03.003Z,14.00
2019-02-20T13:13:38.116Z,14.00
2019-02-20T13:19:42.530Z,14.10
2019-02-20T13:23:00.274Z,14.20
2019-02-20T13:25:29.628Z,14.10
2019-02-20T13:27:59.537Z,13.80
2019-02-20T13:30:38.099Z,13.90
2019-02-20T13:33:09.531Z,13.90
2019-02-20T13:36:30.406Z,13.70
2019-02-20T13:39:01.130Z,13.80
2019-02-20T13:42:05.285Z,13.80
2019-02-20T13:44:36.481Z,13.70
2019-02-20T13:47:58.119Z,14.70
2019-02-20T13:50:29.176Z,14.90
2019-02-20T13:53:36.399Z,13.70
2019-02-20T13:56:08.105Z,13.80
2019-02-20T13:59:16.338Z,13.80
2019-02-20T14:01:55.989Z,13.80
2019-02-20T14:05:12.398Z,13.80
2019-02-20T14:07:48.375Z,13.30
2019-02-20T14:17:13.280Z,13.90
2019-02-20T14:19:48.988Z,13.90
2019-02-20T14:22:43.683Z,14.10
2019-02-20T14:25:27.289Z,14.20
2019-02-20T14:28:25.171Z,14.10
2019-02-20T14:33:44.259Z,13.90
2019-02-20T14:36:26.071Z,14.00
2019-02-20T14:39:09.428Z,13.90
2019-02-20T14:41:45.438Z,13.90
2019-02-20T14:47:32.799Z,14.20
2019-02-20T14:50:49.820Z,13.80
2019-02-20T14:53:30.720Z,13.20
2019-02-20T14:56:05.192Z,13.30
2019-02-20T14:58:38.077Z,13.50
2019-02-20T15:01:10.105Z,13.70
2019-02-20T15:03:56.801Z,13.90
2019-02-20T15:06:29.359Z,14.00
2019-02-20T15:09:37.043Z,13.90
2019-02-20T15:12:15.238Z,13.90
2019-02-20T15:15:26.111Z,14.00
2019-02-20T15:18:02.551Z,14.00
2019-02-20T15:29:41.114Z,13.70
2019-02-20T15:32:17.134Z,12.80
2019-02-20T15:34:47.168Z,13.30
2019-02-20T15:44:10.677Z,13.60
2019-02-20T15:46:47.403Z,13.80
2019-02-20T15:49:16.754Z,14.00
2019-02-20T15:51:48.460Z,14.10
2019-02-20T15:54:21.522Z,14.10
2019-02-20T15:57:00.084Z,14.10
2019-02-20T15:59:44.649Z,14.10
2019-02-20T16:02:21.837Z,14.20
2019-02-20T16:05:00.652Z,14.10
2019-02-20T16:07:41.477Z,14.10
2019-02-20T16:10:49.940Z,14.00
2019-02-20T16:13:23.624Z,14.00
2019-02-20T16:16:02.040Z,13.90
2019-02-20T16:18:31.345Z,13.80
2019-02-20T16:21:12.876Z,13.70
2019-02-20T16:23:47.815Z,13.90
2019-02-20T16:27:05.726Z,13.70
2019-02-20T16:29:44.466Z,13.70
2019-02-20T16:32:22.134Z,13.60
2019-02-20T16:34:55.644Z,13.60
2019-02-20T16:38:03.213Z,13.30
2019-02-20T16:40:35.399Z,13.30
2019-02-20T16:43:55.599Z,13.30
2019-02-20T16:46:33.050Z,13.20
2019-02-20T16:49:47.758Z,13.10
2019-02-20T16:52:23.416Z,13.10
2019-02-20T16:55:39.776Z,13.00
2019-02-20T16:58:13.528Z,12.90
2019-02-20T17:04:00.091Z,12.70
2019-02-20T17:06:51.095Z,12.70
2019-02-20T17:11:54.805Z,12.50
2019-02-20T17:15:09.386Z,12.40
2019-02-20T17:17:44.556Z,12.40
2019-02-20T17:20:46.670Z,12.20
2019-02-20T17:23:20.440Z,12.20
2019-02-20T17:33:04.128Z,12.00
2019-02-20T17:35:43.091Z,11.90
2019-02-20T17:39:07.354Z,11.90
2019-02-20T17:41:48.392Z,11.80
2019-02-20T17:44:47.612Z,11.70
2019-02-20T17:50:35.941Z,11.60
2019-02-20T17:53:19.351Z,11.50
2019-02-20T17:59:03.732Z,11.40
2019-02-20T18:04:46.107Z,11.30
2019-02-20T18:07:53.281Z,11.10
2019-02-20T18:10:34.645Z,11.10
2019-02-20T18:13:44.200Z,11.10
2019-02-20T18:16:17.392Z,11.00
2019-02-20T18:19:08.823Z,10.90
2019-02-20T18:21:44.273Z,9.80
2019-02-20T18:24:37.212Z,10.70
2019-02-20T18:27:09.905Z,10.60
2019-02-20T18:30:12.794Z,10.60
2019-02-20T18:32:38.903Z,10.40
2019-02-20T18:35:50.642Z,10.40
2019-02-20T18:38:26.510Z,10.40
2019-02-20T18:41:36.262Z,10.30
2019-02-20T18:44:11.937Z,10.20
2019-02-20T18:46:46.762Z,10.20
2019-02-20T18:49:21.258Z,10.20
2019-02-20T18:51:53.404Z,10.10
2019-02-20T18:54:37.519Z,10.10
2019-02-20T18:57:23.097Z,10.10
2019-02-20T19:00:16.007Z,10.10
2019-02-20T19:02:53.101Z,10.10
2019-02-20T19:05:33.646Z,9.90
2019-02-20T19:08:26.651Z,12.40
2019-02-20T19:11:07.667Z,9.90
2019-02-20T19:13:57.348Z,12.20
2019-02-20T19:16:53.154Z,9.90
2019-02-20T19:19:45.173Z,9.90
2019-02-20T19:22:44.281Z,9.80
2019-02-20T19:25:45.891Z,9.60
2019-02-20T19:28:44.099Z,9.60
2019-02-20T19:31:21.808Z,9.50
2019-02-20T19:40:52.307Z,9.30
2019-02-20T19:43:35.737Z,9.30
2019-02-20T19:46:11.751Z,9.30
2019-02-20T19:49:07.996Z,9.20
2019-02-20T19:51:48.903Z,9.20
2019-02-20T19:54:33.009Z,9.20
2019-02-20T19:57:20.104Z,9.20
2019-02-20T20:00:32.700Z,9.10
2019-02-20T20:03:13.724Z,9.20
2019-02-20T20:06:37.163Z,9.00
2019-02-20T20:09:44.718Z,9.00
2019-02-20T20:13:07.567Z,8.90
2019-02-20T20:16:11.172Z,9.00
2019-02-20T20:19:15.099Z,9.00
2019-02-20T20:22:14.313Z,8.80
2019-02-20T20:25:34.244Z,8.80
2019-02-20T20:28:23.606Z,8.80
2019-02-20T20:34:26.367Z,8.50
2019-02-20T20:37:24.896Z,8.60
2019-02-20T20:40:08.200Z,8.50
2019-02-20T20:43:20.265Z,8.50
2019-02-20T20:46:16.144Z,8.40
2019-02-20T20:49:17.694Z,8.40
2019-02-20T20:52:10.348Z,8.40
2019-02-20T20:55:15.101Z,8.40
2019-02-20T20:57:58.115Z,8.30
2019-02-20T21:01:00.524Z,8.30
2019-02-20T21:03:43.518Z,8.20
2019-02-20T21:07:04.130Z,8.30
2019-02-20T21:09:53.913Z,8.20
2019-02-20T21:13:00.224Z,8.20
2019-02-20T21:15:47.156Z,8.10
2019-02-20T21:18:43.221Z,8.00
2019-02-20T21:21:42.477Z,8.10
2019-02-20T21:24:52.298Z,8.10
2019-02-20T21:27:53.586Z,7.90
2019-02-20T21:30:46.306Z,7.80
2019-02-20T21:33:35.263Z,7.90
2019-02-20T21:36:49.368Z,7.80
2019-02-20T21:39:41.512Z,7.80
2019-02-20T21:42:43.872Z,7.90
2019-02-20T21:45:35.237Z,10.20
2019-02-20T21:48:25.033Z,7.80
2019-02-20T21:51:38.410Z,7.80
2019-02-20T21:54:18.101Z,7.70
2019-02-20T21:56:55.958Z,7.70
2019-02-20T21:59:48.229Z,7.70
2019-02-20T22:02:22.325Z,7.80
2019-02-20T22:05:12.293Z,7.80
2019-02-20T22:08:08.743Z,8.00
2019-02-20T22:11:16.592Z,7.70
2019-02-20T22:14:22.293Z,7.70
2019-02-20T22:17:11.812Z,7.70
2019-02-20T22:20:01.223Z,7.70
2019-02-20T22:22:54.642Z,7.70
2019-02-20T22:25:37.735Z,7.60
2019-02-20T22:28:49.150Z,7.60
2019-02-20T22:31:45.773Z,7.60
2019-02-20T22:34:32.832Z,7.60
2019-02-20T22:37:22.601Z,7.70
2019-02-20T22:40:13.535Z,7.60
2019-02-20T22:42:53.861Z,7.50
2019-02-20T22:46:02.471Z,7.40
2019-02-20T22:48:56.378Z,7.30
2019-02-20T22:51:56.261Z,7.40
2019-02-20T22:54:43.659Z,7.40
2019-02-20T22:57:33.647Z,7.30
2019-02-20T23:00:34.289Z,7.30
2019-02-20T23:03:45.592Z,7.40
2019-02-20T23:06:28.997Z,7.30
2019-02-20T23:09:55.200Z,5.40
2019-02-20T23:12:43.113Z,7.40
2019-02-20T23:15:53.342Z,7.40
2019-02-20T23:18:26.741Z,7.30
2019-02-20T23:21:02.697Z,7.30
2019-02-20T23:23:35.971Z,7.30
2019-02-20T23:26:10.131Z,7.20
2019-02-20T23:29:09.207Z,7.30
2019-02-20T23:31:42.455Z,7.30
2019-02-20T23:34:52.069Z,7.10
2019-02-20T23:37:24.524Z,7.10
2019-02-20T23:40:04.657Z,7.20
2019-02-20T23:42:42.474Z,7.30
2019-02-20T23:45:15.488Z,7.40
2019-02-20T23:47:49.231Z,7.30
2019-02-20T23:50:21.985Z,7.30
2019-02-20T23:52:55.220Z,7.20
2019-02-20T23:55:28.566Z,7.00
2019-02-20T23:58:03.326Z,7.00
